sensor_id;sensor_type;location;lat;lon;timestamp;P1;durP1;ratioP1;P2;durP2;ratioP2
4313;SDS011;2170;48.794;9.182;2023-02-28T00:01:05;4.50;;;4.10;;
4313;SDS011;2170;48.794;9.182;2023-02-28T00:03:32;4.70;;;4.40;;
4313;SDS011;2170;48.794;9.182;2023-02-28T00:06:00;4.40;;;4.10;;
4313;SDS011;2170;48.794;9.182;2023-02-28T00:08:28;4.80;;;4.40;;
4313;SDS011;2170;48.794;9.182;2023-02-28T00:10:55;4.30;;;4.00;;
4313;SDS011;2170;48.794;9.182;2023-02-28T00:13:22;4.80;;;4.50;;
4313;SDS011;2170;48.794;9.182;2023-02-28T00:15:58;4.23;;;3.93;;
4313;SDS011;2170;48.794;9.182;2023-02-28T00:18:25;4.50;;;4.10;;
4313;SDS011;2170;48.794;9.182;2023-02-28T00:20:52;4.20;;;3.90;;
4313;SDS011;2170;48.794;9.182;2023-02-28T00:23:19;4.80;;;4.40;;
4313;SDS011;2170;48.794;9.182;2023-02-28T00:25:47;5.33;;;4.83;;
4313;SDS011;2170;48.794;9.182;2023-02-28T00:28:14;4.40;;;4.10;;
4313;SDS011;2170;48.794;9.182;2023-02-28T00:30:41;4.70;;;4.40;;
4313;SDS011;2170;48.794;9.182;2023-02-28T00:33:09;5.00;;;4.50;;
4313;SDS011;2170;48.794;9.182;2023-02-28T00:35:36;4.93;;;4.10;;
4313;SDS011;2170;48.794;9.182;2023-02-28T00:38:03;4.47;;;4.17;;
4313;SDS011;2170;48.794;9.182;2023-02-28T00:40:30;5.20;;;4.73;;
4313;SDS011;2170;48.794;9.182;2023-02-28T00:42:59;5.90;;;5.30;;
4313;SDS011;2170;48.794;9.182;2023-02-28T00:45:26;4.97;;;4.57;;
4313;SDS011;2170;48.794;9.182;2023-02-28T00:47:53;5.77;;;5.23;;
4313;SDS011;2170;48.794;9.182;2023-02-28T00:50:20;4.97;;;4.57;;
4313;SDS011;2170;48.794;9.182;2023-02-28T00:52:47;5.03;;;4.70;;
4313;SDS011;2170;48.794;9.182;2023-02-28T00:55:14;5.07;;;4.67;;
4313;SDS011;2170;48.794;9.182;2023-02-28T00:57:41;5.73;;;5.27;;
4313;SDS011;2170;48.794;9.182;2023-02-28T01:00:11;4.90;;;4.50;;
4313;SDS011;2170;48.794;9.182;2023-02-28T01:02:38;5.90;;;5.37;;
4313;SDS011;2170;48.794;9.182;2023-02-28T01:05:05;5.07;;;4.67;;
4313;SDS011;2170;48.794;9.182;2023-02-28T01:07:32;5.00;;;4.60;;
4313;SDS011;2170;48.794;9.182;2023-02-28T01:09:59;4.90;;;4.50;;
4313;SDS011;2170;48.794;9.182;2023-02-28T01:12:26;4.40;;;4.10;;
4313;SDS011;2170;48.794;9.182;2023-02-28T01:14:53;8.53;;;4.93;;
4313;SDS011;2170;48.794;9.182;2023-02-28T01:17:21;5.60;;;5.10;;
4313;SDS011;2170;48.794;9.182;2023-02-28T01:19:49;5.37;;;4.97;;
4313;SDS011;2170;48.794;9.182;2023-02-28T01:22:16;6.47;;;5.77;;
4313;SDS011;2170;48.794;9.182;2023-02-28T01:24:43;5.83;;;5.37;;
4313;SDS011;2170;48.794;9.182;2023-02-28T01:27:10;5.13;;;4.73;;
4313;SDS011;2170;48.794;9.182;2023-02-28T01:29:37;5.90;;;5.30;;
4313;SDS011;2170;48.794;9.182;2023-02-28T01:32:04;5.77;;;5.23;;
4313;SDS011;2170;48.794;9.182;2023-02-28T01:34:32;5.63;;;5.13;;
4313;SDS011;2170;48.794;9.182;2023-02-28T01:36:59;5.70;;;5.20;;
4313;SDS011;2170;48.794;9.182;2023-02-28T01:39:26;6.03;;;5.53;;
4313;SDS011;2170;48.794;9.182;2023-02-28T01:41:53;5.63;;;5.17;;
4313;SDS011;2170;48.794;9.182;2023-02-28T01:47:06;6.60;;;6.00;;
4313;SDS011;2170;48.794;9.182;2023-02-28T01:49:34;5.40;;;5.03;;
4313;SDS011;2170;48.794;9.182;2023-02-28T01:52:01;6.40;;;5.80;;
4313;SDS011;2170;48.794;9.182;2023-02-28T01:54:29;5.33;;;5.03;;
4313;SDS011;2170;48.794;9.182;2023-02-28T01:56:58;6.03;;;5.47;;
4313;SDS011;2170;48.794;9.182;2023-02-28T01:59:27;6.60;;;5.80;;
4313;SDS011;2170;48.794;9.182;2023-02-28T02:01:56;5.73;;;5.23;;
4313;SDS011;2170;48.794;9.182;2023-02-28T02:04:25;6.73;;;6.13;;
4313;SDS011;2170;48.794;9.182;2023-02-28T02:06:55;5.67;;;5.17;;
4313;SDS011;2170;48.794;9.182;2023-02-28T02:09:22;6.63;;;5.77;;
4313;SDS011;2170;48.794;9.182;2023-02-28T02:11:49;6.63;;;5.93;;
4313;SDS011;2170;48.794;9.182;2023-02-28T02:14:20;6.53;;;5.93;;
4313;SDS011;2170;48.794;9.182;2023-02-28T02:16:52;6.07;;;5.57;;
4313;SDS011;2170;48.794;9.182;2023-02-28T02:19:30;6.60;;;6.10;;
4313;SDS011;2170;48.794;9.182;2023-02-28T02:22:13;7.03;;;5.57;;
4313;SDS011;2170;48.794;9.182;2023-02-28T02:24:54;6.60;;;6.00;;
4313;SDS011;2170;48.794;9.182;2023-02-28T02:27:27;6.87;;;6.27;;
4313;SDS011;2170;48.794;9.182;2023-02-28T02:30:15;7.07;;;6.47;;
4313;SDS011;2170;48.794;9.182;2023-02-28T02:35:41;6.77;;;6.17;;
4313;SDS011;2170;48.794;9.182;2023-02-28T02:38:13;6.60;;;6.10;;
4313;SDS011;2170;48.794;9.182;2023-02-28T02:40:46;6.70;;;6.13;;
4313;SDS011;2170;48.794;9.182;2023-02-28T02:43:16;6.27;;;5.67;;
4313;SDS011;2170;48.794;9.182;2023-02-28T02:45:46;7.60;;;5.90;;
4313;SDS011;2170;48.794;9.182;2023-02-28T02:48:16;8.30;;;6.30;;
4313;SDS011;2170;48.794;9.182;2023-02-28T02:50:46;7.23;;;6.53;;
4313;SDS011;2170;48.794;9.182;2023-02-28T02:53:15;6.17;;;5.67;;
4313;SDS011;2170;48.794;9.182;2023-02-28T02:55:44;7.50;;;6.47;;
4313;SDS011;2170;48.794;9.182;2023-02-28T02:58:13;6.67;;;6.17;;
4313;SDS011;2170;48.794;9.182;2023-02-28T03:00:42;6.60;;;6.00;;
4313;SDS011;2170;48.794;9.182;2023-02-28T03:03:12;6.60;;;6.00;;
4313;SDS011;2170;48.794;9.182;2023-02-28T03:05:42;7.53;;;6.83;;
4313;SDS011;2170;48.794;9.182;2023-02-28T03:08:10;7.37;;;6.77;;
4313;SDS011;2170;48.794;9.182;2023-02-28T03:10:38;7.33;;;6.63;;
4313;SDS011;2170;48.794;9.182;2023-02-28T03:15:56;7.00;;;6.30;;
4313;SDS011;2170;48.794;9.182;2023-02-28T03:18:25;8.27;;;7.37;;
4313;SDS011;2170;48.794;9.182;2023-02-28T03:20:57;6.60;;;6.10;;
4313;SDS011;2170;48.794;9.182;2023-02-28T03:23:28;7.70;;;7.00;;
4313;SDS011;2170;48.794;9.182;2023-02-28T03:25:59;7.80;;;7.13;;
4313;SDS011;2170;48.794;9.182;2023-02-28T03:28:31;7.10;;;6.40;;
4313;SDS011;2170;48.794;9.182;2023-02-28T03:30:59;7.87;;;7.10;;
4313;SDS011;2170;48.794;9.182;2023-02-28T03:33:28;7.60;;;6.80;;
4313;SDS011;2170;48.794;9.182;2023-02-28T03:35:57;7.53;;;6.90;;
4313;SDS011;2170;48.794;9.182;2023-02-28T03:38:28;8.60;;;7.67;;
4313;SDS011;2170;48.794;9.182;2023-02-28T03:41:00;7.90;;;7.10;;
4313;SDS011;2170;48.794;9.182;2023-02-28T03:43:29;7.40;;;6.70;;
4313;SDS011;2170;48.794;9.182;2023-02-28T03:45:58;7.20;;;6.60;;
4313;SDS011;2170;48.794;9.182;2023-02-28T03:48:28;7.87;;;7.17;;
4313;SDS011;2170;48.794;9.182;2023-02-28T03:50:58;8.33;;;7.53;;
4313;SDS011;2170;48.794;9.182;2023-02-28T03:53:27;8.23;;;7.10;;
4313;SDS011;2170;48.794;9.182;2023-02-28T03:55:58;7.93;;;7.30;;
4313;SDS011;2170;48.794;9.182;2023-02-28T03:58:27;7.40;;;6.50;;
4313;SDS011;2170;48.794;9.182;2023-02-28T04:00:57;8.10;;;7.20;;
4313;SDS011;2170;48.794;9.182;2023-02-28T04:03:33;7.33;;;6.60;;
4313;SDS011;2170;48.794;9.182;2023-02-28T04:06:00;7.93;;;7.03;;
4313;SDS011;2170;48.794;9.182;2023-02-28T04:08:27;7.60;;;6.90;;
4313;SDS011;2170;48.794;9.182;2023-02-28T04:10:55;7.23;;;6.60;;
4313;SDS011;2170;48.794;9.182;2023-02-28T04:13:25;7.30;;;6.60;;
4313;SDS011;2170;48.794;9.182;2023-02-28T04:15:52;7.30;;;6.70;;
4313;SDS011;2170;48.794;9.182;2023-02-28T04:18:19;7.30;;;6.60;;
4313;SDS011;2170;48.794;9.182;2023-02-28T04:20:46;8.70;;;7.83;;
4313;SDS011;2170;48.794;9.182;2023-02-28T04:23:13;7.80;;;7.00;;
4313;SDS011;2170;48.794;9.182;2023-02-28T04:25:40;7.93;;;7.20;;
4313;SDS011;2170;48.794;9.182;2023-02-28T04:28:08;10.10;;;7.70;;
4313;SDS011;2170;48.794;9.182;2023-02-28T04:30:38;8.50;;;7.67;;
4313;SDS011;2170;48.794;9.182;2023-02-28T04:33:05;7.47;;;6.67;;
4313;SDS011;2170;48.794;9.182;2023-02-28T04:35:32;6.87;;;6.27;;
4313;SDS011;2170;48.794;9.182;2023-02-28T04:37:59;8.20;;;7.50;;
4313;SDS011;2170;48.794;9.182;2023-02-28T04:40:26;8.23;;;7.43;;
4313;SDS011;2170;48.794;9.182;2023-02-28T04:42:53;7.90;;;7.20;;
4313;SDS011;2170;48.794;9.182;2023-02-28T04:45:20;8.33;;;7.63;;
4313;SDS011;2170;48.794;9.182;2023-02-28T04:47:49;7.57;;;6.97;;
4313;SDS011;2170;48.794;9.182;2023-02-28T04:50:16;8.27;;;7.57;;
4313;SDS011;2170;48.794;9.182;2023-02-28T04:52:43;8.13;;;7.33;;
4313;SDS011;2170;48.794;9.182;2023-02-28T04:55:10;10.07;;;8.00;;
4313;SDS011;2170;48.794;9.182;2023-02-28T04:57:37;7.50;;;6.80;;
4313;SDS011;2170;48.794;9.182;2023-02-28T05:00:04;8.10;;;7.40;;
4313;SDS011;2170;48.794;9.182;2023-02-28T05:02:36;12.03;;;7.00;;
4313;SDS011;2170;48.794;9.182;2023-02-28T05:05:05;8.80;;;8.00;;
4313;SDS011;2170;48.794;9.182;2023-02-28T05:07:32;9.90;;;8.00;;
4313;SDS011;2170;48.794;9.182;2023-02-28T05:09:59;8.93;;;8.03;;
4313;SDS011;2170;48.794;9.182;2023-02-28T05:12:26;8.90;;;7.70;;
4313;SDS011;2170;48.794;9.182;2023-02-28T05:14:53;8.83;;;8.13;;
4313;SDS011;2170;48.794;9.182;2023-02-28T05:17:21;8.70;;;7.80;;
4313;SDS011;2170;48.794;9.182;2023-02-28T05:19:48;8.33;;;7.50;;
4313;SDS011;2170;48.794;9.182;2023-02-28T05:22:16;7.60;;;6.93;;
4313;SDS011;2170;48.794;9.182;2023-02-28T05:24:43;8.83;;;8.03;;
4313;SDS011;2170;48.794;9.182;2023-02-28T05:27:10;9.60;;;8.57;;
4313;SDS011;2170;48.794;9.182;2023-02-28T05:29:37;8.77;;;7.97;;
4313;SDS011;2170;48.794;9.182;2023-02-28T05:32:08;8.73;;;7.83;;
4313;SDS011;2170;48.794;9.182;2023-02-28T05:34:36;8.90;;;8.00;;
4313;SDS011;2170;48.794;9.182;2023-02-28T05:37:03;8.53;;;7.73;;
4313;SDS011;2170;48.794;9.182;2023-02-28T05:39:32;9.00;;;7.50;;
4313;SDS011;2170;48.794;9.182;2023-02-28T05:41:59;8.30;;;7.50;;
4313;SDS011;2170;48.794;9.182;2023-02-28T05:44:26;8.03;;;7.33;;
4313;SDS011;2170;48.794;9.182;2023-02-28T05:46:53;12.20;;;8.90;;
4313;SDS011;2170;48.794;9.182;2023-02-28T05:49:20;7.87;;;6.90;;
4313;SDS011;2170;48.794;9.182;2023-02-28T05:51:47;8.57;;;7.77;;
4313;SDS011;2170;48.794;9.182;2023-02-28T05:54:14;9.30;;;8.40;;
4313;SDS011;2170;48.794;9.182;2023-02-28T05:56:42;12.20;;;8.83;;
4313;SDS011;2170;48.794;9.182;2023-02-28T05:59:10;10.73;;;7.60;;
4313;SDS011;2170;48.794;9.182;2023-02-28T06:01:38;9.80;;;8.80;;
4313;SDS011;2170;48.794;9.182;2023-02-28T06:04:06;9.80;;;7.63;;
4313;SDS011;2170;48.794;9.182;2023-02-28T06:06:34;10.30;;;7.73;;
4313;SDS011;2170;48.794;9.182;2023-02-28T06:09:02;9.10;;;7.77;;
4313;SDS011;2170;48.794;9.182;2023-02-28T06:11:29;9.40;;;8.40;;
4313;SDS011;2170;48.794;9.182;2023-02-28T06:13:58;9.00;;;8.10;;
4313;SDS011;2170;48.794;9.182;2023-02-28T06:16:26;10.20;;;8.80;;
4313;SDS011;2170;48.794;9.182;2023-02-28T06:18:53;10.80;;;8.70;;
4313;SDS011;2170;48.794;9.182;2023-02-28T06:21:21;9.20;;;8.27;;
4313;SDS011;2170;48.794;9.182;2023-02-28T06:23:48;9.20;;;8.30;;
4313;SDS011;2170;48.794;9.182;2023-02-28T06:26:15;10.57;;;9.47;;
4313;SDS011;2170;48.794;9.182;2023-02-28T06:28:42;9.43;;;8.53;;
4313;SDS011;2170;48.794;9.182;2023-02-28T06:31:11;9.23;;;8.33;;
4313;SDS011;2170;48.794;9.182;2023-02-28T06:33:39;11.50;;;8.80;;
4313;SDS011;2170;48.794;9.182;2023-02-28T06:36:06;9.60;;;8.70;;
4313;SDS011;2170;48.794;9.182;2023-02-28T06:38:34;9.63;;;7.70;;
4313;SDS011;2170;48.794;9.182;2023-02-28T06:41:01;11.63;;;9.03;;
4313;SDS011;2170;48.794;9.182;2023-02-28T06:43:29;9.90;;;8.80;;
4313;SDS011;2170;48.794;9.182;2023-02-28T06:45:56;9.00;;;8.10;;
4313;SDS011;2170;48.794;9.182;2023-02-28T06:48:25;9.43;;;8.47;;
4313;SDS011;2170;48.794;9.182;2023-02-28T06:50:52;11.00;;;9.40;;
4313;SDS011;2170;48.794;9.182;2023-02-28T06:53:27;10.30;;;8.60;;
4313;SDS011;2170;48.794;9.182;2023-02-28T06:55:54;11.10;;;8.93;;
4313;SDS011;2170;48.794;9.182;2023-02-28T06:58:21;12.60;;;9.37;;
4313;SDS011;2170;48.794;9.182;2023-02-28T07:00:50;14.47;;;8.70;;
4313;SDS011;2170;48.794;9.182;2023-02-28T07:03:17;11.30;;;8.40;;
4313;SDS011;2170;48.794;9.182;2023-02-28T07:05:46;10.03;;;9.07;;
4313;SDS011;2170;48.794;9.182;2023-02-28T07:08:13;15.93;;;9.50;;
4313;SDS011;2170;48.794;9.182;2023-02-28T07:10:40;9.60;;;8.70;;
4313;SDS011;2170;48.794;9.182;2023-02-28T07:13:08;10.80;;;8.10;;
4313;SDS011;2170;48.794;9.182;2023-02-28T07:15:35;12.03;;;10.63;;
4313;SDS011;2170;48.794;9.182;2023-02-28T07:18:02;9.30;;;8.40;;
4313;SDS011;2170;48.794;9.182;2023-02-28T07:20:29;9.43;;;8.40;;
4313;SDS011;2170;48.794;9.182;2023-02-28T07:22:58;13.70;;;9.50;;
4313;SDS011;2170;48.794;9.182;2023-02-28T07:25:27;10.00;;;8.73;;
4313;SDS011;2170;48.794;9.182;2023-02-28T07:27:55;11.00;;;8.80;;
4313;SDS011;2170;48.794;9.182;2023-02-28T07:30:24;10.70;;;8.60;;
4313;SDS011;2170;48.794;9.182;2023-02-28T07:32:51;9.57;;;8.50;;
4313;SDS011;2170;48.794;9.182;2023-02-28T07:35:19;9.30;;;8.40;;
4313;SDS011;2170;48.794;9.182;2023-02-28T07:37:46;14.60;;;9.80;;
4313;SDS011;2170;48.794;9.182;2023-02-28T07:40:15;14.40;;;8.93;;
4313;SDS011;2170;48.794;9.182;2023-02-28T07:42:43;9.37;;;8.57;;
4313;SDS011;2170;48.794;9.182;2023-02-28T07:45:10;10.07;;;9.07;;
4313;SDS011;2170;48.794;9.182;2023-02-28T07:47:38;10.57;;;8.63;;
4313;SDS011;2170;48.794;9.182;2023-02-28T07:50:05;10.23;;;9.13;;
4313;SDS011;2170;48.794;9.182;2023-02-28T07:52:32;14.13;;;9.30;;
4313;SDS011;2170;48.794;9.182;2023-02-28T07:54:59;11.00;;;9.00;;
4313;SDS011;2170;48.794;9.182;2023-02-28T07:57:27;9.83;;;8.70;;
4313;SDS011;2170;48.794;9.182;2023-02-28T07:59:54;11.30;;;10.10;;
4313;SDS011;2170;48.794;9.182;2023-02-28T08:02:22;10.27;;;9.07;;
4313;SDS011;2170;48.794;9.182;2023-02-28T08:04:49;10.10;;;9.00;;
4313;SDS011;2170;48.794;9.182;2023-02-28T08:07:16;11.53;;;10.43;;
4313;SDS011;2170;48.794;9.182;2023-02-28T08:09:44;10.10;;;9.10;;
4313;SDS011;2170;48.794;9.182;2023-02-28T08:12:11;10.63;;;9.50;;
4313;SDS011;2170;48.794;9.182;2023-02-28T08:14:39;12.57;;;10.10;;
4313;SDS011;2170;48.794;9.182;2023-02-28T08:17:06;10.47;;;9.40;;
4313;SDS011;2170;48.794;9.182;2023-02-28T08:19:33;11.07;;;9.90;;
4313;SDS011;2170;48.794;9.182;2023-02-28T08:22:00;10.67;;;8.60;;
4313;SDS011;2170;48.794;9.182;2023-02-28T08:24:27;11.27;;;9.43;;
4313;SDS011;2170;48.794;9.182;2023-02-28T08:26:55;11.40;;;10.20;;
4313;SDS011;2170;48.794;9.182;2023-02-28T08:29:22;10.93;;;9.83;;
4313;SDS011;2170;48.794;9.182;2023-02-28T08:31:51;11.27;;;10.17;;
4313;SDS011;2170;48.794;9.182;2023-02-28T08:34:18;12.33;;;11.03;;
4313;SDS011;2170;48.794;9.182;2023-02-28T08:36:45;11.13;;;9.90;;
4313;SDS011;2170;48.794;9.182;2023-02-28T08:39:12;11.00;;;9.90;;
4313;SDS011;2170;48.794;9.182;2023-02-28T08:41:39;11.67;;;10.57;;
4313;SDS011;2170;48.794;9.182;2023-02-28T08:44:06;10.87;;;9.40;;
4313;SDS011;2170;48.794;9.182;2023-02-28T08:46:33;14.53;;;11.00;;
4313;SDS011;2170;48.794;9.182;2023-02-28T08:49:02;12.13;;;10.50;;
4313;SDS011;2170;48.794;9.182;2023-02-28T08:51:29;12.37;;;10.97;;
4313;SDS011;2170;48.794;9.182;2023-02-28T08:53:57;12.27;;;10.97;;
4313;SDS011;2170;48.794;9.182;2023-02-28T08:56:25;10.67;;;9.57;;
4313;SDS011;2170;48.794;9.182;2023-02-28T08:58:53;12.63;;;11.10;;
4313;SDS011;2170;48.794;9.182;2023-02-28T09:01:21;12.17;;;10.90;;
4313;SDS011;2170;48.794;9.182;2023-02-28T09:03:49;15.50;;;11.47;;
4313;SDS011;2170;48.794;9.182;2023-02-28T09:06:18;12.47;;;11.17;;
4313;SDS011;2170;48.794;9.182;2023-02-28T09:08:46;13.37;;;10.50;;
4313;SDS011;2170;48.794;9.182;2023-02-28T09:11:13;13.57;;;11.37;;
4313;SDS011;2170;48.794;9.182;2023-02-28T09:13:40;13.57;;;11.77;;
4313;SDS011;2170;48.794;9.182;2023-02-28T09:16:08;11.20;;;10.10;;
4313;SDS011;2170;48.794;9.182;2023-02-28T09:18:37;14.53;;;11.13;;
4313;SDS011;2170;48.794;9.182;2023-02-28T09:21:05;14.03;;;12.03;;
4313;SDS011;2170;48.794;9.182;2023-02-28T09:23:33;12.10;;;10.90;;
4313;SDS011;2170;48.794;9.182;2023-02-28T09:26:03;13.40;;;11.83;;
4313;SDS011;2170;48.794;9.182;2023-02-28T09:28:30;13.10;;;11.70;;
4313;SDS011;2170;48.794;9.182;2023-02-28T09:30:57;12.20;;;11.00;;
4313;SDS011;2170;48.794;9.182;2023-02-28T09:33:25;11.23;;;10.10;;
4313;SDS011;2170;48.794;9.182;2023-02-28T09:35:57;12.73;;;10.90;;
4313;SDS011;2170;48.794;9.182;2023-02-28T09:38:24;13.40;;;11.33;;
4313;SDS011;2170;48.794;9.182;2023-02-28T09:40:55;10.40;;;9.50;;
4313;SDS011;2170;48.794;9.182;2023-02-28T09:43:23;12.70;;;11.10;;
4313;SDS011;2170;48.794;9.182;2023-02-28T09:45:51;14.13;;;12.47;;
4313;SDS011;2170;48.794;9.182;2023-02-28T09:48:24;13.67;;;11.00;;
4313;SDS011;2170;48.794;9.182;2023-02-28T09:50:52;11.90;;;10.80;;
4313;SDS011;2170;48.794;9.182;2023-02-28T09:53:21;13.77;;;11.47;;
4313;SDS011;2170;48.794;9.182;2023-02-28T09:55:52;15.60;;;12.07;;
4313;SDS011;2170;48.794;9.182;2023-02-28T09:58:28;13.20;;;11.90;;
4313;SDS011;2170;48.794;9.182;2023-02-28T10:00:59;13.10;;;11.77;;
4313;SDS011;2170;48.794;9.182;2023-02-28T10:03:29;13.17;;;11.00;;
4313;SDS011;2170;48.794;9.182;2023-02-28T10:05:59;11.93;;;10.60;;
4313;SDS011;2170;48.794;9.182;2023-02-28T10:08:29;14.20;;;11.40;;
4313;SDS011;2170;48.794;9.182;2023-02-28T10:10:57;13.27;;;11.10;;
4313;SDS011;2170;48.794;9.182;2023-02-28T10:13:27;12.53;;;11.20;;
4313;SDS011;2170;48.794;9.182;2023-02-28T10:15:59;12.10;;;10.50;;
4313;SDS011;2170;48.794;9.182;2023-02-28T10:18:28;15.40;;;11.30;;
4313;SDS011;2170;48.794;9.182;2023-02-28T10:20:57;11.87;;;10.67;;
4313;SDS011;2170;48.794;9.182;2023-02-28T10:23:26;12.70;;;11.43;;
4313;SDS011;2170;48.794;9.182;2023-02-28T10:25:55;14.63;;;13.07;;
4313;SDS011;2170;48.794;9.182;2023-02-28T10:28:23;13.50;;;12.10;;
4313;SDS011;2170;48.794;9.182;2023-02-28T10:30:53;12.90;;;11.40;;
4313;SDS011;2170;48.794;9.182;2023-02-28T10:33:22;13.10;;;11.63;;
4313;SDS011;2170;48.794;9.182;2023-02-28T10:35:49;12.77;;;11.50;;
4313;SDS011;2170;48.794;9.182;2023-02-28T10:38:18;13.63;;;11.60;;
4313;SDS011;2170;48.794;9.182;2023-02-28T10:40:45;13.40;;;12.00;;
4313;SDS011;2170;48.794;9.182;2023-02-28T10:43:19;12.53;;;11.27;;
4313;SDS011;2170;48.794;9.182;2023-02-28T10:45:59;15.40;;;11.53;;
4313;SDS011;2170;48.794;9.182;2023-02-28T10:48:32;14.73;;;10.93;;
4313;SDS011;2170;48.794;9.182;2023-02-28T10:51:00;14.47;;;11.53;;
4313;SDS011;2170;48.794;9.182;2023-02-28T10:53:30;12.73;;;11.43;;
4313;SDS011;2170;48.794;9.182;2023-02-28T10:55:59;13.60;;;12.17;;
4313;SDS011;2170;48.794;9.182;2023-02-28T10:58:27;12.50;;;11.30;;
4313;SDS011;2170;48.794;9.182;2023-02-28T11:00:54;12.37;;;11.17;;
4313;SDS011;2170;48.794;9.182;2023-02-28T11:03:29;13.10;;;11.50;;
4313;SDS011;2170;48.794;9.182;2023-02-28T11:05:56;13.23;;;11.40;;
4313;SDS011;2170;48.794;9.182;2023-02-28T11:08:23;12.60;;;11.30;;
4313;SDS011;2170;48.794;9.182;2023-02-28T11:10:53;14.43;;;12.10;;
4313;SDS011;2170;48.794;9.182;2023-02-28T11:13:21;12.87;;;11.53;;
4313;SDS011;2170;48.794;9.182;2023-02-28T11:15:52;15.90;;;12.90;;
4313;SDS011;2170;48.794;9.182;2023-02-28T11:18:21;13.40;;;12.10;;
4313;SDS011;2170;48.794;9.182;2023-02-28T11:20:51;14.40;;;12.90;;
4313;SDS011;2170;48.794;9.182;2023-02-28T11:23:19;13.87;;;12.47;;
4313;SDS011;2170;48.794;9.182;2023-02-28T11:25:47;11.10;;;10.10;;
4313;SDS011;2170;48.794;9.182;2023-02-28T11:28:26;13.33;;;12.00;;
4313;SDS011;2170;48.794;9.182;2023-02-28T11:31:00;12.67;;;11.47;;
4313;SDS011;2170;48.794;9.182;2023-02-28T11:33:29;13.90;;;12.60;;
4313;SDS011;2170;48.794;9.182;2023-02-28T11:35:59;12.90;;;11.70;;
4313;SDS011;2170;48.794;9.182;2023-02-28T11:38:27;12.57;;;11.33;;
4313;SDS011;2170;48.794;9.182;2023-02-28T11:41:05;12.90;;;11.70;;
4313;SDS011;2170;48.794;9.182;2023-02-28T11:43:38;12.90;;;11.70;;
4313;SDS011;2170;48.794;9.182;2023-02-28T11:46:13;12.23;;;10.97;;
4313;SDS011;2170;48.794;9.182;2023-02-28T11:48:51;12.73;;;11.47;;
4313;SDS011;2170;48.794;9.182;2023-02-28T11:51:26;10.80;;;9.87;;
4313;SDS011;2170;48.794;9.182;2023-02-28T11:53:59;12.17;;;11.07;;
4313;SDS011;2170;48.794;9.182;2023-02-28T11:56:30;13.10;;;11.80;;
4313;SDS011;2170;48.794;9.182;2023-02-28T11:59:04;12.43;;;11.23;;
4313;SDS011;2170;48.794;9.182;2023-02-28T12:01:38;13.20;;;11.80;;
4313;SDS011;2170;48.794;9.182;2023-02-28T12:04:11;13.23;;;11.97;;
4313;SDS011;2170;48.794;9.182;2023-02-28T12:06:44;13.53;;;11.97;;
4313;SDS011;2170;48.794;9.182;2023-02-28T12:09:23;12.43;;;11.33;;
4313;SDS011;2170;48.794;9.182;2023-02-28T12:11:56;14.27;;;12.83;;
4313;SDS011;2170;48.794;9.182;2023-02-28T12:17:11;16.50;;;12.33;;
4313;SDS011;2170;48.794;9.182;2023-02-28T12:19:41;14.60;;;13.13;;
4313;SDS011;2170;48.794;9.182;2023-02-28T12:22:29;12.53;;;11.43;;
4313;SDS011;2170;48.794;9.182;2023-02-28T12:25:02;12.03;;;10.93;;
4313;SDS011;2170;48.794;9.182;2023-02-28T12:27:33;12.53;;;11.50;;
4313;SDS011;2170;48.794;9.182;2023-02-28T12:30:01;11.80;;;10.70;;
4313;SDS011;2170;48.794;9.182;2023-02-28T12:32:30;14.07;;;12.77;;
4313;SDS011;2170;48.794;9.182;2023-02-28T12:35:00;12.53;;;11.30;;
4313;SDS011;2170;48.794;9.182;2023-02-28T12:37:31;12.70;;;11.70;;
4313;SDS011;2170;48.794;9.182;2023-02-28T12:40:00;13.40;;;12.20;;
4313;SDS011;2170;48.794;9.182;2023-02-28T12:42:31;12.63;;;11.37;;
4313;SDS011;2170;48.794;9.182;2023-02-28T12:45:01;15.77;;;11.77;;
4313;SDS011;2170;48.794;9.182;2023-02-28T12:47:28;13.10;;;11.90;;
4313;SDS011;2170;48.794;9.182;2023-02-28T12:49:56;11.87;;;10.77;;
4313;SDS011;2170;48.794;9.182;2023-02-28T12:52:25;13.23;;;11.97;;
4313;SDS011;2170;48.794;9.182;2023-02-28T12:54:58;12.33;;;11.13;;
4313;SDS011;2170;48.794;9.182;2023-02-28T12:57:28;12.57;;;11.37;;
4313;SDS011;2170;48.794;9.182;2023-02-28T12:59:59;13.53;;;12.17;;
4313;SDS011;2170;48.794;9.182;2023-02-28T13:02:39;12.37;;;11.27;;
4313;SDS011;2170;48.794;9.182;2023-02-28T13:05:17;15.27;;;11.10;;
4313;SDS011;2170;48.794;9.182;2023-02-28T13:07:54;12.17;;;11.07;;
4313;SDS011;2170;48.794;9.182;2023-02-28T13:10:24;13.13;;;11.90;;
4313;SDS011;2170;48.794;9.182;2023-02-28T13:12:52;12.83;;;10.80;;
4313;SDS011;2170;48.794;9.182;2023-02-28T13:15:21;11.77;;;10.77;;
4313;SDS011;2170;48.794;9.182;2023-02-28T13:17:50;12.57;;;11.53;;
4313;SDS011;2170;48.794;9.182;2023-02-28T13:20:18;11.50;;;10.50;;
4313;SDS011;2170;48.794;9.182;2023-02-28T13:22:47;11.70;;;10.60;;
4313;SDS011;2170;48.794;9.182;2023-02-28T13:28:02;11.00;;;10.10;;
4313;SDS011;2170;48.794;9.182;2023-02-28T13:33:22;12.20;;;11.10;;
4313;SDS011;2170;48.794;9.182;2023-02-28T13:35:56;12.30;;;11.20;;
4313;SDS011;2170;48.794;9.182;2023-02-28T13:38:34;11.73;;;10.73;;
4313;SDS011;2170;48.794;9.182;2023-02-28T13:44:01;11.83;;;10.80;;
4313;SDS011;2170;48.794;9.182;2023-02-28T13:46:29;11.37;;;10.33;;
4313;SDS011;2170;48.794;9.182;2023-02-28T13:48:56;11.43;;;10.33;;
4313;SDS011;2170;48.794;9.182;2023-02-28T13:51:44;11.30;;;10.13;;
4313;SDS011;2170;48.794;9.182;2023-02-28T13:54:24;11.37;;;10.20;;
4313;SDS011;2170;48.794;9.182;2023-02-28T13:56:57;11.70;;;10.67;;
4313;SDS011;2170;48.794;9.182;2023-02-28T13:59:31;11.67;;;10.53;;
4313;SDS011;2170;48.794;9.182;2023-02-28T14:02:22;12.30;;;11.10;;
4313;SDS011;2170;48.794;9.182;2023-02-28T14:05:00;11.87;;;10.87;;
4313;SDS011;2170;48.794;9.182;2023-02-28T14:07:29;12.40;;;10.20;;
4313;SDS011;2170;48.794;9.182;2023-02-28T14:09:59;11.80;;;10.80;;
4313;SDS011;2170;48.794;9.182;2023-02-28T14:15:41;11.30;;;10.30;;
4313;SDS011;2170;48.794;9.182;2023-02-28T14:18:16;11.33;;;9.80;;
4313;SDS011;2170;48.794;9.182;2023-02-28T14:20:44;12.30;;;11.10;;
4313;SDS011;2170;48.794;9.182;2023-02-28T14:23:14;11.90;;;10.70;;
4313;SDS011;2170;48.794;9.182;2023-02-28T14:25:44;10.87;;;9.80;;
4313;SDS011;2170;48.794;9.182;2023-02-28T14:28:17;11.73;;;10.23;;
4313;SDS011;2170;48.794;9.182;2023-02-28T14:30:56;12.10;;;11.00;;
4313;SDS011;2170;48.794;9.182;2023-02-28T14:33:31;11.27;;;10.37;;
4313;SDS011;2170;48.794;9.182;2023-02-28T14:36:04;11.73;;;10.63;;
4313;SDS011;2170;48.794;9.182;2023-02-28T14:38:36;11.87;;;10.73;;
4313;SDS011;2170;48.794;9.182;2023-02-28T14:41:04;11.77;;;10.60;;
4313;SDS011;2170;48.794;9.182;2023-02-28T14:43:46;11.00;;;9.90;;
4313;SDS011;2170;48.794;9.182;2023-02-28T14:46:15;11.03;;;9.97;;
4313;SDS011;2170;48.794;9.182;2023-02-28T14:48:44;10.77;;;9.77;;
4313;SDS011;2170;48.794;9.182;2023-02-28T14:51:11;11.73;;;10.53;;
4313;SDS011;2170;48.794;9.182;2023-02-28T14:53:39;11.30;;;10.30;;
4313;SDS011;2170;48.794;9.182;2023-02-28T14:56:17;12.03;;;9.73;;
4313;SDS011;2170;48.794;9.182;2023-02-28T14:58:50;12.33;;;11.17;;
4313;SDS011;2170;48.794;9.182;2023-02-28T15:01:20;12.40;;;11.20;;
4313;SDS011;2170;48.794;9.182;2023-02-28T15:03:47;11.97;;;10.87;;
4313;SDS011;2170;48.794;9.182;2023-02-28T15:06:15;12.47;;;11.30;;
4313;SDS011;2170;48.794;9.182;2023-02-28T15:08:43;11.43;;;10.43;;
4313;SDS011;2170;48.794;9.182;2023-02-28T15:11:12;11.70;;;10.77;;
4313;SDS011;2170;48.794;9.182;2023-02-28T15:13:40;10.83;;;9.83;;
4313;SDS011;2170;48.794;9.182;2023-02-28T15:16:09;11.67;;;10.60;;
4313;SDS011;2170;48.794;9.182;2023-02-28T15:18:42;12.90;;;11.63;;
4313;SDS011;2170;48.794;9.182;2023-02-28T15:21:11;11.37;;;10.37;;
4313;SDS011;2170;48.794;9.182;2023-02-28T15:23:39;11.53;;;10.43;;
4313;SDS011;2170;48.794;9.182;2023-02-28T15:26:07;11.70;;;10.60;;
4313;SDS011;2170;48.794;9.182;2023-02-28T15:28:35;10.93;;;10.03;;
4313;SDS011;2170;48.794;9.182;2023-02-28T15:31:25;12.03;;;10.83;;
4313;SDS011;2170;48.794;9.182;2023-02-28T15:33:54;12.17;;;10.97;;
4313;SDS011;2170;48.794;9.182;2023-02-28T15:36:24;11.83;;;10.73;;